Terminal Aerodrome Forecast
Issued by NWS

Home | Current Version | Previous Version | Text Only | Print | Product List | Glossary On
Versions: 1 2 3 4 5 6 7 8 9 10 11 12 13 14 15 16 17 18 19 20 21 22 23 24 25 26 27 28
000
FTUS43 KDVN 261700
TAFBRL
TAF
KBRL 261723Z 2618/2718 04008KT P6SM OVC012
     FM262000 VRB04KT P6SM VCTS SCT035CB BKN150
      TEMPO 2621/2701 3SM TSRA BR BKN030CB
     FM270200 VRB03KT P6SM SCT035 BKN200
     FM270600 29005KT 6SM BR SCT250
     FM271300 30008KT 6SM BR FEW250
     FM271530 30015G20KT P6SM FEW060=

USA.gov is the U.S. government's official web portal to all federal, state and local government web resources and services.